Fort Fairfield, Maine
Current Conditions -  °F | °C
As of 6:54 PM on Monday 24 Nov 2014 (Local Time) from KCAR Reporting Station
Overcast Overcast  
Wind Chill: 51°   Ceiling: 300
Heat Index: 51°   Visibility: 8mi
Dew Point: 50°   Wind: 14mph
Humidity: 96%   Direction: 180°S
Pressure: 29.43"   Gusts: NA
Location:  46.77°N, 67.83°W
Report Text: KCAR 242354Z AUTO 18012KT 8SM OVC003 11/10 A2943 RMK AO2 SLP973 60007 T01060100 10106 20072 56026
Loading
Personal Weather Stations






























Interactive Weather Map New forecast layout! Learn more

10-Day Weather Forecast

Advertisements
Track Severe Weather on mobile